Time;durP1;ratioP1;P1;durP2;ratioP2;P2;SDS_P1;SDS_P2;PMS_P1;PMS_P2;Temp;Humidity;BMP_temperature;BMP_pressure;BME280_temperature;BME280_humidity;BME280_pressure;Samples;Min_cycle;Max_cycle;Signal;HPM_P1;HPM_P2
2021/12/21 00:00:34;;;;;;;25.53;12.80;;;-2.60;99.90;;;;;;5002674;28;20200;-88
2021/12/21 00:03:00;;;;;;;29.75;12.10;;;-2.70;99.90;;;;;;5012504;28;20194;-88
2021/12/21 00:05:29;;;;;;;24.60;11.60;;;;;;;;;;5007773;28;20326;-89
2021/12/21 00:07:59;;;;;;;27.75;11.10;;;-2.90;99.90;;;;;;5014831;28;20201;-89
2021/12/21 00:10:27;;;;;;;24.20;12.73;;;-2.90;99.90;;;;;;5022892;28;20182;-89
2021/12/21 00:18:18;;;;;;;24.20;11.70;;;-2.90;99.90;;;;;;5020232;28;20197;-90
2021/12/21 00:21:35;;;;;;;21.88;10.82;;;-2.90;99.90;;;;;;5005568;28;20188;-89
2021/12/21 00:23:37;;;;;;;16.75;10.52;;;-3.00;99.90;;;;;;5017027;28;20341;-87
2021/12/21 00:26:07;;;;;;;16.40;9.15;;;-3.10;99.90;;;;;;5018670;28;20177;-89
2021/12/21 00:28:39;;;;;;;25.40;12.15;;;-3.70;99.90;;;;;;5025652;28;20202;-87
2021/12/21 00:31:05;;;;;;;33.10;11.75;;;-3.20;99.90;;;;;;5017745;28;20209;-88
2021/12/21 00:33:30;;;;;;;32.63;12.77;;;-3.20;99.90;;;;;;5003886;28;20247;-88
2021/12/21 00:35:56;;;;;;;31.83;10.03;;;;;;;;;;5028141;28;20654;-88
2021/12/21 00:38:23;;;;;;;21.48;11.07;;;;;;;;;;5020074;28;20186;-88
2021/12/21 00:40:49;;;;;;;24.30;9.30;;;;;;;;;;5017236;28;20189;-89
2021/12/21 00:43:14;;;;;;;22.38;10.27;;;;;;;;;;5029719;28;20189;-89
2021/12/21 00:45:40;;;;;;;21.70;8.85;;;-3.20;99.90;;;;;;5014785;28;20251;-88
2021/12/21 00:48:06;;;;;;;18.67;8.70;;;-3.20;99.90;;;;;;4999641;28;20304;-88
2021/12/21 00:50:32;;;;;;;29.40;10.70;;;;;;;;;;5007316;28;20178;-88
2021/12/21 00:52:57;;;;;;;19.57;9.90;;;;;;;;;;5023347;28;20228;-89
2021/12/21 00:55:24;;;;;;;21.70;9.53;;;-3.30;99.90;;;;;;5011492;28;21141;-89
2021/12/21 00:57:50;;;;;;;21.02;9.05;;;;;;;;;;5007838;28;20436;-88
2021/12/21 01:00:18;;;;;;;20.10;10.65;;;-3.20;99.90;;;;;;5023480;28;20196;-86
2021/12/21 01:02:43;;;;;;;24.98;10.88;;;-3.30;99.90;;;;;;5019740;28;20674;-87
2021/12/21 01:05:19;;;;;;;29.00;10.47;;;-3.30;99.90;;;;;;5021437;28;20215;-88
2021/12/21 01:07:49;;;;;;;33.88;11.95;;;-3.20;99.90;;;;;;5021126;28;20323;-88
2021/12/21 01:13:13;;;;;;;23.58;10.75;;;-3.20;99.90;;;;;;5025528;28;20178;-89
2021/12/21 01:18:12;;;;;;;19.50;8.60;;;-3.10;99.90;;;;;;5021654;28;20676;-87
2021/12/21 01:20:44;;;;;;;25.67;10.45;;;-3.10;99.90;;;;;;5024583;28;20186;-88
2021/12/21 01:25:46;;;;;;;20.17;7.75;;;-3.20;99.90;;;;;;5025843;28;20182;-89
2021/12/21 01:28:23;;;;;;;22.63;7.57;;;-3.20;99.90;;;;;;5008925;28;20345;-89
2021/12/21 01:31:57;;;;;;;18.10;8.45;;;-3.30;99.90;;;;;;5029644;28;20174;-88
2021/12/21 01:34:05;;;;;;;13.02;6.50;;;-3.20;99.90;;;;;;5007253;28;20271;-87
2021/12/21 01:39:06;;;;;;;26.07;7.40;;;-3.40;99.90;;;;;;5033243;28;20182;-87
2021/12/21 01:41:40;;;;;;;25.30;7.70;;;-3.50;99.90;;;;;;5025372;28;20444;-89
2021/12/21 01:49:39;;;;;;;12.20;8.20;;;-3.60;99.90;;;;;;5030249;28;20228;-89
2021/12/21 01:52:12;;;;;;;16.70;8.45;;;-3.60;99.90;;;;;;5029597;28;20736;-89
2021/12/21 01:54:37;;;;;;;19.25;7.57;;;-3.60;99.90;;;;;;5034457;28;20193;-88
2021/12/21 01:57:04;;;;;;;19.10;6.73;;;-3.60;99.90;;;;;;5036712;28;20208;-87
2021/12/21 01:59:31;;;;;;;17.90;6.93;;;-2.60;99.90;;;;;;5036956;28;20184;-88
2021/12/21 02:01:56;;;;;;;9.75;6.70;;;-3.60;99.90;;;;;;5039194;28;20278;-89
2021/12/21 02:04:22;;;;;;;14.17;6.37;;;;;;;;;;5014845;28;20329;-89
2021/12/21 02:06:49;;;;;;;12.40;6.30;;;;;;;;;;5017066;28;20188;-89
2021/12/21 02:09:16;;;;;;;10.98;6.35;;;;;;;;;;5027567;28;20485;-88
2021/12/21 02:11:42;;;;;;;18.40;6.95;;;;;;;;;;5028240;28;20588;-87
2021/12/21 02:14:09;;;;;;;18.70;9.60;;;-3.70;99.90;;;;;;5022226;28;20205;-87
2021/12/21 02:16:51;;;;;;;16.35;7.22;;;-3.70;99.90;;;;;;5025018;28;20909;-89
2021/12/21 02:19:30;;;;;;;17.15;8.00;;;-3.70;99.90;;;;;;5026836;28;20195;-88
2021/12/21 02:22:06;;;;;;;21.10;7.32;;;;;;;;;;5028355;28;20173;-88
2021/12/21 02:24:40;;;;;;;10.80;6.32;;;-3.80;99.90;;;;;;5008338;28;20239;-87
2021/12/21 02:27:18;;;;;;;14.48;6.40;;;;;;;;;;5024612;28;20204;-88
2021/12/21 02:29:43;;;;;;;15.18;6.57;;;-4.00;99.90;;;;;;5028784;28;20639;-89
2021/12/21 02:32:12;;;;;;;35.80;7.53;;;;;;;;;;5011006;28;20188;-88
2021/12/21 02:34:38;;;;;;;23.83;6.70;;;;;;;;;;5017513;28;20208;-87
2021/12/21 02:37:04;;;;;;;16.50;6.70;;;-4.00;99.90;;;;;;5011410;28;20181;-89
2021/12/21 02:39:30;;;;;;;17.63;6.00;;;-3.90;99.90;;;;;;5024223;28;20185;-88
2021/12/21 02:41:56;;;;;;;16.67;8.40;;;;;;;;;;5022242;28;20441;-88
2021/12/21 02:44:22;;;;;;;17.73;7.60;;;;;;;;;;5004033;28;20459;-88
2021/12/21 02:46:48;;;;;;;14.40;6.55;;;-4.00;99.90;;;;;;5023957;28;20661;-89
2021/12/21 02:49:15;;;;;;;19.95;8.00;;;-4.00;99.90;;;;;;5011360;28;20649;-88
2021/12/21 02:51:43;;;;;;;16.50;7.78;;;-4.00;99.90;;;;;;5009884;28;20182;-88
2021/12/21 02:54:11;;;;;;;20.83;8.35;;;-3.90;99.90;;;;;;4999484;28;20306;-89
2021/12/21 02:56:36;;;;;;;12.23;7.07;;;-3.90;99.90;;;;;;5036452;28;20178;-88
2021/12/21 02:59:03;;;;;;;13.37;6.77;;;;;;;;;;5015489;28;20570;-89
2021/12/21 03:01:29;;;;;;;22.48;7.70;;;;;;;;;;5026586;28;20612;-89
2021/12/21 03:03:56;;;;;;;25.48;7.97;;;;;;;;;;5029144;28;20201;-88
2021/12/21 03:07:04;;;;;;;25.88;8.35;;;;;;;;;;5014740;28;20177;-89
2021/12/21 03:11:50;;;;;;;19.55;8.80;;;-4.00;99.90;;;;;;5023639;28;20185;-88
2021/12/21 03:14:16;;;;;;;25.30;7.78;;;;;;;;;;5018662;28;20201;-88
2021/12/21 03:16:42;;;;;;;22.80;8.60;;;-4.10;99.90;;;;;;5001882;28;20204;-88
2021/12/21 03:19:10;;;;;;;16.83;6.63;;;-3.90;99.90;;;;;;5026913;28;20190;-89
2021/12/21 03:21:36;;;;;;;22.45;6.50;;;-3.90;99.90;;;;;;5016696;28;20265;-88
2021/12/21 03:24:03;;;;;;;20.35;8.05;;;-3.90;99.90;;;;;;5029994;28;20293;-88
2021/12/21 03:26:28;;;;;;;12.00;6.40;;;-4.00;99.90;;;;;;5007568;28;20240;-87
2021/12/21 03:28:55;;;;;;;16.60;7.27;;;;;;;;;;5008544;28;20202;-87
2021/12/21 03:31:21;;;;;;;15.60;7.15;;;;;;;;;;5008657;28;20274;-89
2021/12/21 03:33:47;;;;;;;20.33;7.45;;;-3.80;99.90;;;;;;5028865;28;20200;-87
2021/12/21 03:36:16;;;;;;;20.15;6.30;;;-3.90;99.90;;;;;;5027045;28;20224;-87
2021/12/21 03:38:47;;;;;;;11.32;6.50;;;-4.00;99.90;;;;;;5011701;28;21543;-88
2021/12/21 03:41:15;;;;;;;18.38;5.53;;;-4.10;99.90;;;;;;5010657;28;20181;-88
2021/12/21 03:43:41;;;;;;;19.05;6.45;;;-4.00;99.90;;;;;;5025086;28;20204;-88
2021/12/21 03:46:12;;;;;;;14.53;6.80;;;-3.90;99.90;;;;;;5028949;28;20181;-88
2021/12/21 03:48:41;;;;;;;11.23;5.82;;;-4.00;99.90;;;;;;5031237;28;20202;-87
2021/12/21 03:51:07;;;;;;;14.68;6.45;;;-4.00;99.90;;;;;;5013956;28;20186;-86
2021/12/21 03:53:33;;;;;;;16.58;6.45;;;-4.10;99.90;;;;;;5014569;28;20193;-88
2021/12/21 03:56:11;;;;;;;15.75;6.32;;;-4.10;99.90;;;;;;5028169;28;20177;-89
2021/12/21 03:58:37;;;;;;;21.40;6.60;;;-4.00;99.90;;;;;;5014142;28;20192;-88
2021/12/21 04:01:04;;;;;;;19.73;6.63;;;-4.20;99.90;;;;;;5011989;28;20197;-89
2021/12/21 04:03:29;;;;;;;10.77;5.97;;;-4.30;99.90;;;;;;5013878;28;20516;-87
2021/12/21 04:05:55;;;;;;;18.00;6.30;;;-4.30;99.90;;;;;;5033283;28;20181;-88
2021/12/21 04:08:20;;;;;;;25.07;8.67;;;-4.30;99.90;;;;;;5009647;28;20209;-87
2021/12/21 04:10:46;;;;;;;13.53;5.70;;;-4.30;99.90;;;;;;5027483;28;21236;-88
2021/12/21 04:13:12;;;;;;;18.67;6.60;;;-4.30;99.90;;;;;;5005473;28;20190;-87
2021/12/21 04:15:44;;;;;;;10.60;5.80;;;-4.30;99.90;;;;;;5031194;28;20186;-87
2021/12/21 04:18:13;;;;;;;14.65;5.97;;;-3.10;99.90;;;;;;5030268;28;20643;-88
2021/12/21 04:20:40;;;;;;;22.83;7.38;;;-4.30;99.90;;;;;;5021590;28;20189;-88
2021/12/21 04:23:06;;;;;;;11.85;6.05;;;-4.20;99.90;;;;;;5029254;28;20210;-87
2021/12/21 04:25:33;;;;;;;16.73;5.80;;;-4.30;99.90;;;;;;5025727;28;20208;-88
2021/12/21 04:27:59;;;;;;;26.88;7.40;;;-4.40;99.90;;;;;;5027963;28;20256;-88
2021/12/21 04:30:25;;;;;;;19.23;5.07;;;-4.30;99.90;;;;;;5022431;28;20209;-88
2021/12/21 04:32:50;;;;;;;14.18;6.10;;;-4.40;99.90;;;;;;5019552;28;20182;-87
2021/12/21 04:35:19;;;;;;;12.83;6.90;;;-4.40;99.90;;;;;;4993931;28;20202;-88
2021/12/21 04:37:57;;;;;;;13.82;6.30;;;-4.30;99.90;;;;;;5027633;28;20316;-87
2021/12/21 04:40:36;;;;;;;13.50;7.15;;;-4.30;99.90;;;;;;5014263;28;20181;-88
2021/12/21 04:43:02;;;;;;;16.67;7.00;;;-4.40;99.90;;;;;;5012774;28;20190;-87
2021/12/21 04:45:27;;;;;;;20.00;6.90;;;-4.40;99.90;;;;;;5029918;28;20197;-88
2021/12/21 04:47:53;;;;;;;13.87;7.53;;;;;;;;;;5011018;28;20296;-87
2021/12/21 04:50:19;;;;;;;17.97;7.17;;;-4.30;99.90;;;;;;5017323;28;20178;-87
2021/12/21 04:52:45;;;;;;;12.87;7.10;;;-4.20;99.90;;;;;;5015734;28;20807;-88
2021/12/21 04:55:11;;;;;;;18.93;7.90;;;;;;;;;;5014124;28;20205;-88
2021/12/21 04:57:36;;;;;;;12.35;8.20;;;;;;;;;;5007533;28;20273;-88
2021/12/21 05:00:05;;;;;;;15.50;7.90;;;-4.20;99.90;;;;;;5047604;28;20185;-87
2021/12/21 05:02:30;;;;;;;18.80;6.30;;;-4.20;99.90;;;;;;5053593;28;20436;-86
2021/12/21 05:04:56;;;;;;;16.93;7.03;;;-4.20;99.90;;;;;;5033197;28;20793;-88
2021/12/21 05:07:24;;;;;;;15.10;7.23;;;;;;;;;;5021945;28;20216;-89
2021/12/21 05:09:56;;;;;;;25.50;7.00;;;;;;;;;;5033738;28;20201;-88
2021/12/21 05:12:22;;;;;;;15.80;6.28;;;-4.30;99.90;;;;;;5027489;28;20205;-88
2021/12/21 05:14:47;;;;;;;17.17;8.13;;;-4.40;99.90;;;;;;5029283;28;20500;-88
2021/12/21 05:17:13;;;;;;;25.57;9.50;;;-4.40;99.90;;;;;;5029252;28;20202;-89
2021/12/21 05:19:38;;;;;;;10.07;6.50;;;-3.40;99.90;;;;;;5015864;28;20203;-88
2021/12/21 05:22:04;;;;;;;23.13;6.93;;;-4.40;99.90;;;;;;5035305;28;20196;-87
2021/12/21 05:24:30;;;;;;;12.30;7.00;;;-4.40;99.90;;;;;;5031249;28;20233;-86
2021/12/21 05:26:56;;;;;;;18.87;7.53;;;-4.40;99.90;;;;;;5014373;28;20178;-87
2021/12/21 05:29:22;;;;;;;15.30;6.07;;;-4.40;99.90;;;;;;5021179;28;20205;-88
2021/12/21 05:31:47;;;;;;;12.95;5.22;;;-4.40;99.90;;;;;;5013234;28;20428;-87
2021/12/21 05:34:13;;;;;;;12.93;6.37;;;-4.30;99.90;;;;;;5024094;28;20304;-89
2021/12/21 05:36:39;;;;;;;9.60;6.10;;;-4.30;99.90;;;;;;5013152;28;20444;-87
2021/12/21 05:39:14;;;;;;;13.93;6.70;;;;;;;;;;5030122;28;20182;-87
2021/12/21 05:41:48;;;;;;;21.00;7.03;;;-4.30;99.90;;;;;;5014792;28;20209;-87
2021/12/21 05:44:15;;;;;;;12.40;5.88;;;-4.30;99.90;;;;;;5023155;28;20220;-88
2021/12/21 05:46:41;;;;;;;16.65;7.28;;;;;;;;;;5023963;28;20186;-87
2021/12/21 05:49:07;;;;;;;12.50;6.65;;;-3.40;99.90;;;;;;5004291;28;20279;-87
2021/12/21 05:51:33;;;;;;;15.32;7.38;;;;;;;;;;5015655;28;20182;-88
2021/12/21 05:53:59;;;;;;;15.75;6.85;;;-4.20;99.90;;;;;;5029701;28;20921;-87
2021/12/21 05:56:25;;;;;;;20.33;5.77;;;-4.30;99.90;;;;;;5012718;28;20704;-86
2021/12/21 05:58:50;;;;;;;15.23;6.57;;;-4.40;99.90;;;;;;5029207;28;20193;-87
2021/12/21 06:01:17;;;;;;;13.60;5.93;;;;;;;;;;5028487;28;20205;-87
2021/12/21 06:03:43;;;;;;;13.00;5.72;;;-4.40;99.90;;;;;;5005092;28;20468;-86
2021/12/21 06:06:13;;;;;;;23.63;5.82;;;-4.40;99.90;;;;;;5022175;28;20189;-87
2021/12/21 06:08:39;;;;;;;11.05;5.28;;;-4.50;99.90;;;;;;5015803;28;20214;-87
2021/12/21 06:11:07;;;;;;;12.30;4.78;;;;;;;;;;5035621;28;20775;-87
2021/12/21 06:27:06;;;;;;;13.20;6.03;;;-4.50;99.90;;;;;;5031731;28;20791;-87
2021/12/21 06:29:31;;;;;;;11.45;6.78;;;-4.50;99.90;;;;;;5030566;28;20221;-86
2021/12/21 06:31:57;;;;;;;9.17;5.87;;;-4.50;99.90;;;;;;5021904;28;20311;-87
2021/12/21 06:34:23;;;;;;;12.07;6.80;;;-4.40;99.90;;;;;;5035483;28;20201;-87
2021/12/21 06:36:49;;;;;;;19.80;6.33;;;;;;;;;;5014237;28;20568;-88
2021/12/21 06:39:15;;;;;;;11.82;5.75;;;-4.50;99.90;;;;;;5002176;28;20424;-88
2021/12/21 06:41:41;;;;;;;9.77;5.10;;;-4.50;99.90;;;;;;5036401;28;20180;-88
2021/12/21 06:44:09;;;;;;;12.17;5.47;;;-4.50;99.90;;;;;;5029589;28;20220;-86
2021/12/21 06:52:04;;;;;;;18.25;9.18;;;-3.20;99.90;;;;;;5020874;28;22425;-87
2021/12/21 06:54:30;;;;;;;18.20;7.50;;;-4.60;99.90;;;;;;5025106;28;20198;-87
2021/12/21 06:56:56;;;;;;;15.50;5.53;;;-4.60;99.90;;;;;;5027897;28;20178;-87
2021/12/21 06:59:22;;;;;;;12.00;5.90;;;;;;;;;;5017693;28;20294;-88
2021/12/21 07:01:48;;;;;;;9.38;4.90;;;-4.60;99.90;;;;;;5021943;28;20451;-88
2021/12/21 07:04:17;;;;;;;12.40;6.00;;;-4.50;99.90;;;;;;5000524;28;20225;-87
2021/12/21 07:06:47;;;;;;;13.70;5.88;;;-4.50;99.90;;;;;;5018847;28;20213;-89
2021/12/21 07:09:21;;;;;;;15.20;6.90;;;;;;;;;;5003245;28;20194;-88
2021/12/21 07:11:56;;;;;;;11.15;6.47;;;-4.50;99.90;;;;;;5015309;28;20178;-88
2021/12/21 07:19:57;;;;;;;13.32;5.65;;;-4.60;99.90;;;;;;4999898;28;20193;-88
2021/12/21 07:22:23;;;;;;;12.70;6.00;;;-4.60;99.90;;;;;;5017471;28;20170;-88
2021/12/21 07:24:49;;;;;;;13.70;6.37;;;;;;;;;;5008968;28;21810;-88
2021/12/21 07:27:15;;;;;;;21.58;8.43;;;-4.60;99.90;;;;;;5010660;28;20205;-89
2021/12/21 07:29:41;;;;;;;28.25;9.18;;;-4.60;99.90;;;;;;5028819;28;20162;-88
2021/12/21 07:32:07;;;;;;;23.33;6.70;;;-4.50;99.90;;;;;;5025301;28;20188;-88
2021/12/21 07:34:33;;;;;;;16.73;7.00;;;;;;;;;;5009365;28;20300;-88
2021/12/21 07:36:59;;;;;;;25.03;7.90;;;;;;;;;;5012333;28;20209;-88
2021/12/21 07:39:24;;;;;;;15.15;6.60;;;-4.40;99.90;;;;;;5049918;28;20514;-88
2021/12/21 07:41:50;;;;;;;88.83;27.77;;;;;;;;;;5015875;28;21074;-88
2021/12/21 07:44:16;;;;;;;256.15;89.47;;;;;;;;;;5011542;28;21780;-87
2021/12/21 07:46:42;;;;;;;448.67;185.10;;;-4.30;99.90;;;;;;5024146;28;20181;-89
2021/12/21 07:49:09;;;;;;;201.67;70.57;;;-4.30;99.90;;;;;;5025900;28;20476;-89
2021/12/21 07:51:34;;;;;;;123.43;47.85;;;-4.20;99.90;;;;;;5010112;28;20197;-88
2021/12/21 07:54:00;;;;;;;42.43;16.30;;;-4.20;99.90;;;;;;5022173;28;20606;-89
2021/12/21 07:56:26;;;;;;;23.37;12.53;;;-4.20;99.90;;;;;;5025967;28;20436;-88
2021/12/21 07:58:52;;;;;;;24.97;10.77;;;;;;;;;;5030442;28;20811;-89
2021/12/21 08:01:18;;;;;;;20.95;9.70;;;-4.10;99.90;;;;;;5014441;28;20239;-88
2021/12/21 08:03:44;;;;;;;119.50;93.17;;;;;;;;;;5036840;28;20194;-86
2021/12/21 08:06:12;;;;;;;19.50;11.35;;;-4.00;99.90;;;;;;5053396;28;20470;-92
2021/12/21 08:08:41;;;;;;;19.25;9.18;;;-3.90;99.90;;;;;;5043248;28;20213;-88
2021/12/21 08:11:11;;;;;;;10.88;6.65;;;;;;;;;;5007533;28;20535;-89
2021/12/21 08:13:38;;;;;;;18.70;13.13;;;-3.80;99.90;;;;;;5023735;28;20221;-88
2021/12/21 08:16:04;;;;;;;31.95;20.23;;;-3.70;99.90;;;;;;5027294;28;20184;-88
2021/12/21 08:18:30;;;;;;;68.23;47.37;;;-3.20;99.90;;;;;;4992063;28;20197;-87
2021/12/21 08:20:55;;;;;;;80.90;50.57;;;-2.20;99.90;;;;;;5028888;28;20443;-87
2021/12/21 08:23:21;;;;;;;45.70;28.40;;;-0.70;99.90;;;;;;5031218;28;20194;-88
2021/12/21 08:25:47;;;;;;;35.60;20.10;;;-0.60;99.90;;;;;;5005598;28;20198;-88
2021/12/21 08:28:13;;;;;;;36.35;19.48;;;0.30;99.90;;;;;;5026730;28;20220;-88
2021/12/21 08:30:39;;;;;;;13.53;8.70;;;1.10;99.90;;;;;;5011651;28;20204;-88
2021/12/21 08:33:05;;;;;;;16.98;10.07;;;1.80;99.90;;;;;;5022040;28;20178;-87
2021/12/21 08:35:31;;;;;;;18.70;7.50;;;1.80;99.90;;;;;;4993565;28;20314;-89
2021/12/21 08:38:05;;;;;;;13.25;7.70;;;1.20;99.90;;;;;;5031172;28;20535;-89
2021/12/21 08:40:38;;;;;;;12.93;6.28;;;1.70;99.90;;;;;;5032605;28;20674;-89
2021/12/21 08:43:07;;;;;;;10.02;4.70;;;1.90;99.90;;;;;;5032328;28;20182;-88
2021/12/21 08:45:35;;;;;;;11.80;5.50;;;1.70;99.90;;;;;;4998992;28;20209;-88
2021/12/21 08:48:01;;;;;;;11.55;6.50;;;;;;;;;;5027323;28;20209;-88
2021/12/21 08:50:27;;;;;;;10.95;5.15;;;3.50;99.90;;;;;;5023632;28;20186;-87
2021/12/21 08:52:53;;;;;;;14.47;7.27;;;;;;;;;;5010634;28;20186;-88
2021/12/21 08:55:18;;;;;;;8.38;6.63;;;5.40;99.90;;;;;;5013362;28;20194;-87
2021/12/21 08:57:44;;;;;;;17.63;11.63;;;6.30;99.90;;;;;;5042624;28;20189;-86
2021/12/21 09:00:11;;;;;;;30.57;20.90;;;6.30;99.90;;;;;;5042809;28;20196;-88
2021/12/21 09:02:37;;;;;;;30.55;21.80;;;6.50;99.90;;;;;;5049080;28;20480;-85
2021/12/21 09:05:14;;;;;;;15.20;10.30;;;7.60;99.90;;;;;;5052243;28;20278;-87
2021/12/21 09:07:41;;;;;;;16.02;8.82;;;7.80;99.90;;;;;;5014004;28;20209;-86
2021/12/21 09:10:08;;;;;;;20.55;6.95;;;7.80;99.90;;;;;;5032177;28;20189;-87
2021/12/21 09:12:35;;;;;;;9.48;6.68;;;7.50;99.90;;;;;;5037752;28;20197;-87
2021/12/21 09:15:01;;;;;;;12.00;6.68;;;;;;;;;;5028299;28;20210;-87
2021/12/21 09:17:28;;;;;;;16.08;7.95;;;;;;;;;;5035185;28;20340;-87
2021/12/21 09:19:54;;;;;;;11.73;8.30;;;;;;;;;;5022107;28;20184;-86
2021/12/21 09:22:20;;;;;;;9.27;6.45;;;;;;;;;;5016992;28;20211;-86
2021/12/21 09:24:46;;;;;;;23.05;8.43;;;6.70;99.90;;;;;;5033882;28;20210;-87
2021/12/21 09:27:12;;;;;;;10.83;6.80;;;;;;;;;;5008625;28;20181;-86
2021/12/21 09:29:38;;;;;;;9.93;6.22;;;6.70;99.90;;;;;;5034356;28;20196;-87
2021/12/21 09:32:12;;;;;;;11.77;7.80;;;6.50;99.90;;;;;;5013988;28;20247;-87
2021/12/21 09:34:42;;;;;;;13.02;7.68;;;6.20;99.90;;;;;;5030979;28;20284;-86
2021/12/21 09:37:14;;;;;;;12.77;6.70;;;5.80;99.90;;;;;;5020226;28;20619;-87
2021/12/21 09:39:43;;;;;;;15.23;9.15;;;5.00;99.90;;;;;;5032040;28;20178;-87
2021/12/21 09:42:13;;;;;;;16.27;8.68;;;3.90;99.90;;;;;;5030141;28;20213;-87
2021/12/21 09:44:39;;;;;;;14.68;7.75;;;3.00;99.90;;;;;;5032221;28;20193;-86
2021/12/21 09:47:06;;;;;;;17.00;7.33;;;1.50;99.90;;;;;;5029712;28;20181;-87
2021/12/21 09:49:32;;;;;;;17.52;8.75;;;1.50;99.90;;;;;;5031312;28;20492;-87
2021/12/21 09:51:58;;;;;;;19.27;9.87;;;;;;;;;;5032648;28;20181;-87
2021/12/21 09:54:26;;;;;;;15.23;8.83;;;0.70;99.90;;;;;;5032679;28;20465;-87
2021/12/21 09:56:51;;;;;;;17.73;10.40;;;0.60;99.90;;;;;;5034642;28;20940;-87
2021/12/21 09:59:17;;;;;;;16.10;10.20;;;;;;;;;;5035688;28;20255;-87
2021/12/21 10:01:43;;;;;;;21.67;12.10;;;;;;;;;;5033963;28;20275;-87
2021/12/21 10:04:09;;;;;;;27.33;12.77;;;0.20;99.90;;;;;;5004501;28;20613;-86
2021/12/21 10:06:47;;;;;;;13.43;8.40;;;0.30;99.90;;;;;;5033371;28;20265;-87
2021/12/21 10:09:13;;;;;;;16.10;10.13;;;0.30;99.90;;;;;;5019985;28;20335;-87
2021/12/21 10:11:48;;;;;;;16.40;8.82;;;0.20;99.90;;;;;;5015883;28;20259;-86
2021/12/21 10:14:18;;;;;;;19.80;8.48;;;0.10;99.90;;;;;;5030979;28;20197;-86
2021/12/21 10:16:47;;;;;;;20.63;10.07;;;0.20;99.90;;;;;;5044407;28;20161;-86
2021/12/21 10:19:21;;;;;;;19.85;10.60;;;0.30;99.90;;;;;;5047461;28;20202;-86
2021/12/21 10:21:47;;;;;;;20.65;10.30;;;0.40;99.90;;;;;;5024303;28;20203;-86
2021/12/21 10:24:30;;;;;;;20.90;9.00;;;0.60;99.90;;;;;;5023225;28;20676;-87
2021/12/21 10:27:07;;;;;;;15.07;9.63;;;0.70;99.90;;;;;;5033139;28;20204;-86
2021/12/21 10:29:45;;;;;;;13.75;9.20;;;0.90;99.90;;;;;;5031778;28;20606;-85
2021/12/21 10:32:17;;;;;;;15.07;9.07;;;1.10;99.90;;;;;;5015403;28;20219;-87
2021/12/21 10:35:05;;;;;;;15.57;8.27;;;0.40;99.90;;;;;;5035079;28;20189;-87
2021/12/21 10:37:39;;;;;;;21.52;8.90;;;1.20;99.90;;;;;;5033414;28;20182;-86
2021/12/21 10:40:26;;;;;;;13.35;7.80;;;1.10;99.90;;;;;;5027403;28;20193;-87
2021/12/21 10:43:13;;;;;;;11.88;7.85;;;1.20;99.90;;;;;;5027401;28;20192;-87
2021/12/21 10:45:41;;;;;;;14.95;8.10;;;1.20;99.90;;;;;;5007399;28;20243;-86
2021/12/21 10:48:11;;;;;;;15.70;9.00;;;1.40;99.90;;;;;;5021318;28;20233;-88
2021/12/21 10:50:36;;;;;;;12.38;8.70;;;1.40;99.90;;;;;;5027848;28;20257;-87
2021/12/21 10:53:04;;;;;;;18.00;7.73;;;1.40;99.90;;;;;;5012251;28;21849;-86
2021/12/21 10:55:33;;;;;;;13.52;9.30;;;1.40;99.90;;;;;;5000057;28;20197;-85
2021/12/21 10:58:12;;;;;;;9.93;8.23;;;1.50;99.90;;;;;;5011149;28;20189;-87
2021/12/21 11:00:44;;;;;;;17.73;8.52;;;1.70;99.90;;;;;;5021629;28;20185;-88
2021/12/21 11:03:10;;;;;;;17.48;9.68;;;2.00;99.90;;;;;;5023624;28;20182;-87
2021/12/21 11:05:37;;;;;;;18.35;8.77;;;2.00;99.90;;;;;;5028588;28;20209;-88
2021/12/21 11:08:16;;;;;;;14.23;8.27;;;2.10;99.90;;;;;;5039641;28;20209;-85
2021/12/21 11:10:48;;;;;;;9.07;7.07;;;2.10;99.90;;;;;;5034123;28;20173;-86
2021/12/21 11:13:15;;;;;;;16.00;8.43;;;2.20;99.90;;;;;;5036402;28;20209;-87
2021/12/21 11:15:44;;;;;;;14.63;7.95;;;2.20;99.90;;;;;;5030225;28;20245;-86
2021/12/21 11:18:16;;;;;;;12.70;8.55;;;2.20;99.90;;;;;;5041730;28;20190;-86
2021/12/21 11:20:44;;;;;;;19.17;8.07;;;2.00;99.90;;;;;;5022596;28;20184;-85
2021/12/21 11:23:19;;;;;;;18.83;10.10;;;2.00;99.90;;;;;;5033708;28;20169;-85
2021/12/21 11:25:48;;;;;;;16.17;8.95;;;2.10;99.90;;;;;;5012060;28;20184;-85
2021/12/21 11:28:17;;;;;;;16.13;8.23;;;1.80;99.90;;;;;;5013722;28;20217;-87
2021/12/21 11:30:43;;;;;;;14.38;9.05;;;2.00;99.90;;;;;;5026644;28;20182;-86
2021/12/21 11:33:11;;;;;;;18.73;8.50;;;2.00;99.90;;;;;;5030008;28;20189;-87
2021/12/21 11:38:07;;;;;;;10.45;8.20;;;2.20;99.90;;;;;;5042841;28;20182;-86
2021/12/21 11:40:36;;;;;;;16.67;8.95;;;2.30;99.90;;;;;;5029964;28;20193;-86
2021/12/21 11:43:21;;;;;;;16.13;8.35;;;2.50;99.90;;;;;;5015546;28;20280;-86
2021/12/21 11:46:06;;;;;;;12.57;8.05;;;2.80;99.90;;;;;;5035725;28;20188;-86
2021/12/21 11:48:46;;;;;;;16.52;8.45;;;3.10;99.90;;;;;;5020302;28;20217;-87
2021/12/21 11:51:13;;;;;;;13.68;7.53;;;3.30;99.90;;;;;;5006587;28;20192;-85
2021/12/21 11:53:39;;;;;;;11.65;8.05;;;3.40;99.90;;;;;;5024415;28;20728;-85
2021/12/21 11:56:07;;;;;;;8.07;6.72;;;3.40;99.90;;;;;;5021092;28;20182;-85
2021/12/21 11:58:41;;;;;;;13.95;8.15;;;3.40;99.90;;;;;;5031428;28;20201;-86
2021/12/21 12:01:22;;;;;;;17.05;8.10;;;3.50;99.90;;;;;;5013119;28;20275;-84
2021/12/21 12:03:54;;;;;;;13.30;7.55;;;3.60;99.90;;;;;;5032805;28;20223;-88
2021/12/21 12:06:19;;;;;;;13.50;6.50;;;3.60;99.90;;;;;;5036333;28;20232;-85
2021/12/21 12:08:49;;;;;;;11.57;8.20;;;3.40;99.90;;;;;;5033868;28;20248;-85
2021/12/21 12:11:42;;;;;;;16.73;6.68;;;3.60;99.90;;;;;;5037164;28;20268;-85
2021/12/21 12:14:10;;;;;;;12.85;7.80;;;3.70;99.90;;;;;;5036053;28;20228;-85
2021/12/21 12:16:54;;;;;;;13.73;7.75;;;3.80;99.90;;;;;;5028023;28;20205;-85
2021/12/21 12:19:27;;;;;;;8.15;5.78;;;3.90;99.90;;;;;;5031072;28;20203;-86
2021/12/21 12:21:58;;;;;;;13.57;6.15;;;3.70;99.90;;;;;;5028118;28;20194;-86
2021/12/21 12:24:26;;;;;;;11.98;6.43;;;3.30;99.90;;;;;;5026402;28;20248;-88
2021/12/21 12:27:01;;;;;;;14.63;6.43;;;3.50;99.90;;;;;;5031166;28;20207;-86
2021/12/21 12:29:28;;;;;;;13.23;6.53;;;;;;;;;;5031183;28;20211;-86
2021/12/21 12:32:03;;;;;;;9.75;6.00;;;3.80;99.90;;;;;;5007568;28;20190;-86
2021/12/21 12:34:32;;;;;;;9.70;5.65;;;3.80;99.90;;;;;;5025295;28;20201;-86
2021/12/21 12:36:59;;;;;;;9.57;6.30;;;3.50;99.90;;;;;;5022926;28;20173;-86
2021/12/21 12:39:42;;;;;;;10.18;5.80;;;3.80;99.90;;;;;;5026041;28;20181;-86
2021/12/21 12:42:16;;;;;;;8.18;5.43;;;3.80;99.90;;;;;;5035296;28;20643;-86
2021/12/21 12:44:45;;;;;;;13.85;6.65;;;3.90;99.90;;;;;;5021066;28;20204;-86
2021/12/21 12:47:14;;;;;;;10.13;5.85;;;3.80;99.90;;;;;;5026593;28;20189;-85
2021/12/21 12:49:52;;;;;;;8.93;5.10;;;3.60;99.90;;;;;;5028545;28;20181;-86
2021/12/21 12:52:30;;;;;;;8.95;4.97;;;3.60;99.90;;;;;;5032756;28;20188;-86
2021/12/21 12:55:02;;;;;;;9.40;5.63;;;3.60;99.90;;;;;;5035745;28;20193;-86
2021/12/21 12:57:38;;;;;;;9.73;5.53;;;3.60;99.90;;;;;;5042720;28;20177;-84
2021/12/21 13:00:21;;;;;;;7.93;6.45;;;3.50;99.90;;;;;;5034577;28;20284;-86
2021/12/21 13:03:02;;;;;;;9.35;5.00;;;3.40;99.90;;;;;;5015247;28;20192;-85
2021/12/21 13:05:37;;;;;;;10.60;5.85;;;3.40;99.90;;;;;;5002997;28;20225;-86
2021/12/21 13:08:17;;;;;;;6.70;4.43;;;3.20;99.90;;;;;;5033511;28;20216;-85
2021/12/21 13:10:46;;;;;;;6.18;4.80;;;3.20;99.90;;;;;;5011520;28;20181;-86
2021/12/21 13:13:13;;;;;;;9.00;5.20;;;3.20;99.90;;;;;;5014849;28;20696;-85
2021/12/21 13:15:44;;;;;;;10.93;5.45;;;3.30;99.90;;;;;;5034782;28;20198;-86
2021/12/21 13:18:17;;;;;;;11.88;5.30;;;3.30;99.90;;;;;;5025878;28;20220;-86
2021/12/21 13:20:44;;;;;;;7.03;5.05;;;3.20;99.90;;;;;;5031158;28;20181;-86
2021/12/21 13:23:21;;;;;;;11.70;5.10;;;3.20;99.90;;;;;;5040660;28;20189;-85
2021/12/21 13:25:54;;;;;;;8.98;5.40;;;3.10;99.90;;;;;;5024267;28;20185;-85
2021/12/21 13:28:20;;;;;;;11.45;4.90;;;4.20;99.90;;;;;;5032650;28;20236;-87
2021/12/21 13:30:48;;;;;;;12.70;5.13;;;3.00;99.90;;;;;;5033692;28;20196;-87
2021/12/21 13:33:23;;;;;;;9.60;4.90;;;3.00;99.90;;;;;;5032756;28;20590;-87
2021/12/21 13:35:55;;;;;;;7.57;4.90;;;2.90;99.90;;;;;;5017627;28;20731;-85
2021/12/21 13:38:21;;;;;;;8.70;6.07;;;2.90;99.90;;;;;;5032708;28;20186;-85
2021/12/21 13:40:58;;;;;;;7.65;5.50;;;2.80;99.90;;;;;;5030029;28;20177;-86
2021/12/21 13:43:24;;;;;;;12.45;5.45;;;2.80;99.90;;;;;;5035219;28;20219;-86
2021/12/21 13:45:57;;;;;;;6.82;5.47;;;2.80;99.90;;;;;;5034424;28;20696;-85
2021/12/21 13:48:23;;;;;;;10.77;6.43;;;2.80;99.90;;;;;;5033877;28;20216;-86
2021/12/21 13:50:49;;;;;;;6.23;4.70;;;;;;;;;;5031246;28;20186;-86
2021/12/21 13:53:18;;;;;;;12.67;6.63;;;2.70;99.90;;;;;;5037982;28;20241;-84
2021/12/21 13:55:43;;;;;;;6.40;4.57;;;2.60;99.90;;;;;;5023802;28;20555;-85
2021/12/21 13:58:12;;;;;;;10.37;5.30;;;2.60;99.90;;;;;;5029667;28;20185;-87